Hartsburg, Missouri
Current Conditions -  °F | °C
As of 5:54 AM on Wednesday 28 Jan 2015 (Local Time) from KCOU Reporting Station
Clear Clear  
Wind Chill: 21°   Ceiling: Unl
Heat Index: 31°   Visibility: 7mi
Dew Point: 28°   Wind: 14mph
Humidity: 89%   Direction: 130°SE
Pressure: 30.09"   Gusts: NA
Location:  38.7°N, 92.31°W
Report Text: KCOU 281154Z AUTO 13012KT 7SM CLR M01/M02 A3009 RMK AO2 SLP195 T10061022 10017 21006 56014
Loading
Personal Weather Stations






























Interactive Weather Map New forecast layout! Learn more

10-Day Weather Forecast

Advertisements
Track Severe Weather on mobile